Main page
METAR-TAF:

METAR-TAF

Airports :

Mécheria Airport

Mécheria, Algeria

latitude: 34-56N, longitude: 000-26W, elevation: 1149 m

Current weather observation

The report was made 3 hours and 19 minutes ago, at 18:00 UTC
Wind 8 kt from the North/Northwest
Temperature 12°C
Humidity 35%
Pressure 1028 hPa
Visibility 10 km or more
no clouds below 1500 m and no cumulonimbus

METAR: DAAY 101800Z 34008KT CAVOK 12/M03 Q1028

Time: 22:19 (21:19 UTC)

Forecast

The report was made 1 hour and 19 minutes ago, at 20:00 UTC
Forecast valid from 10 at 21 UTC to 11 at 06 UTC
Wind 10 kt from the North/Northwest
Becoming
from 10 at 22 UTC to 10 at 24 UTC
Wind 2 kt from variable directions

TAF: DAAY 102000Z 1021/1106 34010KT CVAOK BECMG 1022/1024 VRB02KT

Weather observations and forecasts of more than 4000 airports (METAR and TAF reports).

The available stations are represented by yellow and red dots on the map.

Hover mouse over dot to see the name of the station.

Then click to see weather observations and forecasts.

To change the map : click on the green buttons with a black cross to zoom in, on the green button with a dash to zoom out, or on the green arrows for adjacent maps.


METAR-TAF: